sensor_id;sensor_type;location;lat;lon;timestamp;P1;durP1;ratioP1;P2;durP2;ratioP2
9821;SDS011;4950;46.042;14.472;2023-04-06T00:02:18;17.57;;;8.33;;
9821;SDS011;4950;46.042;14.472;2023-04-06T00:04:44;19.47;;;8.80;;
9821;SDS011;4950;46.042;14.472;2023-04-06T00:07:11;18.30;;;7.60;;
9821;SDS011;4950;46.042;14.472;2023-04-06T00:09:38;14.90;;;8.37;;
9821;SDS011;4950;46.042;14.472;2023-04-06T00:12:05;17.40;;;8.83;;
9821;SDS011;4950;46.042;14.472;2023-04-06T00:14:32;14.03;;;7.70;;
9821;SDS011;4950;46.042;14.472;2023-04-06T00:16:59;17.20;;;8.07;;
9821;SDS011;4950;46.042;14.472;2023-04-06T00:19:28;19.17;;;9.93;;
9821;SDS011;4950;46.042;14.472;2023-04-06T00:21:54;19.57;;;8.53;;
9821;SDS011;4950;46.042;14.472;2023-04-06T00:24:21;17.53;;;8.40;;
9821;SDS011;4950;46.042;14.472;2023-04-06T00:26:48;15.60;;;8.33;;
9821;SDS011;4950;46.042;14.472;2023-04-06T00:29:14;16.07;;;8.63;;
9821;SDS011;4950;46.042;14.472;2023-04-06T00:31:41;17.40;;;8.03;;
9821;SDS011;4950;46.042;14.472;2023-04-06T00:34:09;13.87;;;7.80;;
9821;SDS011;4950;46.042;14.472;2023-04-06T00:36:37;16.60;;;8.13;;
9821;SDS011;4950;46.042;14.472;2023-04-06T00:39:04;16.77;;;8.07;;
9821;SDS011;4950;46.042;14.472;2023-04-06T00:41:31;16.90;;;8.03;;
9821;SDS011;4950;46.042;14.472;2023-04-06T00:43:58;16.93;;;8.13;;
9821;SDS011;4950;46.042;14.472;2023-04-06T00:46:24;16.47;;;8.07;;
9821;SDS011;4950;46.042;14.472;2023-04-06T00:48:51;19.97;;;8.53;;
9821;SDS011;4950;46.042;14.472;2023-04-06T00:51:18;16.63;;;8.43;;
9821;SDS011;4950;46.042;14.472;2023-04-06T00:53:46;17.53;;;8.33;;
9821;SDS011;4950;46.042;14.472;2023-04-06T00:56:13;19.90;;;8.10;;
9821;SDS011;4950;46.042;14.472;2023-04-06T00:58:40;15.83;;;7.83;;
9821;SDS011;4950;46.042;14.472;2023-04-06T01:01:06;13.73;;;7.50;;
9821;SDS011;4950;46.042;14.472;2023-04-06T01:03:33;13.97;;;8.07;;
9821;SDS011;4950;46.042;14.472;2023-04-06T01:06:00;17.23;;;9.00;;
9821;SDS011;4950;46.042;14.472;2023-04-06T01:08:27;21.40;;;9.43;;
9821;SDS011;4950;46.042;14.472;2023-04-06T01:10:55;17.27;;;8.97;;
9821;SDS011;4950;46.042;14.472;2023-04-06T01:13:22;18.97;;;9.27;;
9821;SDS011;4950;46.042;14.472;2023-04-06T01:15:48;19.13;;;9.27;;
9821;SDS011;4950;46.042;14.472;2023-04-06T01:18:15;16.70;;;8.77;;
9821;SDS011;4950;46.042;14.472;2023-04-06T01:20:42;18.07;;;9.50;;
9821;SDS011;4950;46.042;14.472;2023-04-06T01:23:10;20.90;;;9.40;;
9821;SDS011;4950;46.042;14.472;2023-04-06T01:25:37;17.03;;;8.83;;
9821;SDS011;4950;46.042;14.472;2023-04-06T01:28:04;14.70;;;7.43;;
9821;SDS011;4950;46.042;14.472;2023-04-06T01:30:30;15.67;;;7.60;;
9821;SDS011;4950;46.042;14.472;2023-04-06T01:32:57;20.23;;;9.03;;
9821;SDS011;4950;46.042;14.472;2023-04-06T01:35:25;16.17;;;8.23;;
9821;SDS011;4950;46.042;14.472;2023-04-06T01:37:55;16.57;;;8.43;;
9821;SDS011;4950;46.042;14.472;2023-04-06T01:40:23;13.37;;;7.17;;
9821;SDS011;4950;46.042;14.472;2023-04-06T01:42:50;19.00;;;7.83;;
9821;SDS011;4950;46.042;14.472;2023-04-06T01:45:16;13.60;;;7.43;;
9821;SDS011;4950;46.042;14.472;2023-04-06T01:47:43;16.17;;;7.80;;
9821;SDS011;4950;46.042;14.472;2023-04-06T01:50:10;14.17;;;7.77;;
9821;SDS011;4950;46.042;14.472;2023-04-06T01:52:37;13.20;;;6.77;;
9821;SDS011;4950;46.042;14.472;2023-04-06T01:55:04;13.73;;;7.03;;
9821;SDS011;4950;46.042;14.472;2023-04-06T01:57:33;14.03;;;7.07;;
9821;SDS011;4950;46.042;14.472;2023-04-06T02:00:00;16.30;;;7.53;;
9821;SDS011;4950;46.042;14.472;2023-04-06T02:02:26;17.93;;;7.83;;
9821;SDS011;4950;46.042;14.472;2023-04-06T02:04:53;15.67;;;8.07;;
9821;SDS011;4950;46.042;14.472;2023-04-06T02:07:20;15.40;;;8.27;;
9821;SDS011;4950;46.042;14.472;2023-04-06T02:09:47;20.83;;;8.10;;
9821;SDS011;4950;46.042;14.472;2023-04-06T02:12:13;15.63;;;8.67;;
9821;SDS011;4950;46.042;14.472;2023-04-06T02:14:42;15.53;;;8.40;;
9821;SDS011;4950;46.042;14.472;2023-04-06T02:17:08;18.60;;;7.87;;
9821;SDS011;4950;46.042;14.472;2023-04-06T02:19:35;13.73;;;7.60;;
9821;SDS011;4950;46.042;14.472;2023-04-06T02:22:02;16.63;;;7.50;;
9821;SDS011;4950;46.042;14.472;2023-04-06T02:24:29;15.83;;;7.67;;
9821;SDS011;4950;46.042;14.472;2023-04-06T02:26:55;16.53;;;7.43;;
9821;SDS011;4950;46.042;14.472;2023-04-06T02:29:22;14.73;;;7.80;;
9821;SDS011;4950;46.042;14.472;2023-04-06T02:31:50;17.43;;;7.07;;
9821;SDS011;4950;46.042;14.472;2023-04-06T02:34:17;14.90;;;7.60;;
9821;SDS011;4950;46.042;14.472;2023-04-06T02:36:44;19.27;;;7.60;;
9821;SDS011;4950;46.042;14.472;2023-04-06T02:39:11;14.83;;;7.80;;
9821;SDS011;4950;46.042;14.472;2023-04-06T02:41:38;15.23;;;7.83;;
9821;SDS011;4950;46.042;14.472;2023-04-06T02:44:06;15.30;;;7.57;;
9821;SDS011;4950;46.042;14.472;2023-04-06T02:46:34;14.73;;;7.78;;
9821;SDS011;4950;46.042;14.472;2023-04-06T02:49:02;14.43;;;7.40;;
9821;SDS011;4950;46.042;14.472;2023-04-06T02:51:29;15.87;;;7.83;;
9821;SDS011;4950;46.042;14.472;2023-04-06T02:53:56;15.20;;;8.00;;
9821;SDS011;4950;46.042;14.472;2023-04-06T02:56:22;15.53;;;7.73;;
9821;SDS011;4950;46.042;14.472;2023-04-06T02:58:49;18.40;;;7.97;;
9821;SDS011;4950;46.042;14.472;2023-04-06T03:01:16;15.40;;;7.87;;
9821;SDS011;4950;46.042;14.472;2023-04-06T03:03:43;19.43;;;8.20;;
9821;SDS011;4950;46.042;14.472;2023-04-06T03:06:11;16.70;;;7.80;;
9821;SDS011;4950;46.042;14.472;2023-04-06T03:08:38;12.83;;;7.30;;
9821;SDS011;4950;46.042;14.472;2023-04-06T03:11:05;13.57;;;7.43;;
9821;SDS011;4950;46.042;14.472;2023-04-06T03:13:32;15.47;;;7.17;;
9821;SDS011;4950;46.042;14.472;2023-04-06T03:15:59;14.60;;;7.83;;
9821;SDS011;4950;46.042;14.472;2023-04-06T03:18:25;14.70;;;7.60;;
9821;SDS011;4950;46.042;14.472;2023-04-06T03:20:52;15.73;;;8.03;;
9821;SDS011;4950;46.042;14.472;2023-04-06T03:23:21;12.60;;;7.17;;
9821;SDS011;4950;46.042;14.472;2023-04-06T03:25:48;13.97;;;7.30;;
9821;SDS011;4950;46.042;14.472;2023-04-06T03:28:15;13.70;;;7.70;;
9821;SDS011;4950;46.042;14.472;2023-04-06T03:30:42;19.53;;;7.30;;
9821;SDS011;4950;46.042;14.472;2023-04-06T03:33:09;15.07;;;7.37;;
9821;SDS011;4950;46.042;14.472;2023-04-06T03:35:35;13.70;;;7.27;;
9821;SDS011;4950;46.042;14.472;2023-04-06T03:38:02;12.80;;;7.17;;
9821;SDS011;4950;46.042;14.472;2023-04-06T03:40:30;16.50;;;7.50;;
9821;SDS011;4950;46.042;14.472;2023-04-06T03:42:57;14.60;;;6.90;;
9821;SDS011;4950;46.042;14.472;2023-04-06T03:45:24;15.53;;;6.77;;
9821;SDS011;4950;46.042;14.472;2023-04-06T03:47:51;15.90;;;7.27;;
9821;SDS011;4950;46.042;14.472;2023-04-06T03:50:17;18.00;;;7.60;;
9821;SDS011;4950;46.042;14.472;2023-04-06T03:52:44;16.57;;;7.33;;
9821;SDS011;4950;46.042;14.472;2023-04-06T03:55:11;16.17;;;7.00;;
9821;SDS011;4950;46.042;14.472;2023-04-06T03:57:39;17.00;;;7.90;;
9821;SDS011;4950;46.042;14.472;2023-04-06T04:00:07;14.87;;;8.07;;
9821;SDS011;4950;46.042;14.472;2023-04-06T04:02:34;15.20;;;7.60;;
9821;SDS011;4950;46.042;14.472;2023-04-06T04:05:01;13.27;;;7.20;;
9821;SDS011;4950;46.042;14.472;2023-04-06T04:07:28;16.60;;;8.63;;
9821;SDS011;4950;46.042;14.472;2023-04-06T04:09:55;15.03;;;8.20;;
9821;SDS011;4950;46.042;14.472;2023-04-06T04:12:22;15.17;;;8.77;;
9821;SDS011;4950;46.042;14.472;2023-04-06T04:14:50;20.70;;;8.70;;
9821;SDS011;4950;46.042;14.472;2023-04-06T04:17:17;21.67;;;9.37;;
9821;SDS011;4950;46.042;14.472;2023-04-06T04:19:43;15.23;;;7.80;;
9821;SDS011;4950;46.042;14.472;2023-04-06T04:22:10;16.97;;;9.97;;
9821;SDS011;4950;46.042;14.472;2023-04-06T04:24:37;21.43;;;10.67;;
9821;SDS011;4950;46.042;14.472;2023-04-06T04:27:04;20.30;;;11.23;;
9821;SDS011;4950;46.042;14.472;2023-04-06T04:29:31;17.63;;;9.83;;
9821;SDS011;4950;46.042;14.472;2023-04-06T04:31:59;19.00;;;10.10;;
9821;SDS011;4950;46.042;14.472;2023-04-06T04:34:25;21.43;;;11.63;;
9821;SDS011;4950;46.042;14.472;2023-04-06T04:36:53;19.77;;;10.30;;
9821;SDS011;4950;46.042;14.472;2023-04-06T04:39:19;19.40;;;9.07;;
9821;SDS011;4950;46.042;14.472;2023-04-06T04:41:46;16.37;;;7.63;;
9821;SDS011;4950;46.042;14.472;2023-04-06T04:44:13;14.47;;;7.23;;
9821;SDS011;4950;46.042;14.472;2023-04-06T04:46:40;17.50;;;7.53;;
9821;SDS011;4950;46.042;14.472;2023-04-06T04:49:09;13.10;;;7.00;;
9821;SDS011;4950;46.042;14.472;2023-04-06T04:51:35;12.57;;;6.90;;
9821;SDS011;4950;46.042;14.472;2023-04-06T04:54:02;17.53;;;8.20;;
9821;SDS011;4950;46.042;14.472;2023-04-06T04:56:29;16.90;;;7.03;;
9821;SDS011;4950;46.042;14.472;2023-04-06T04:58:56;19.77;;;6.77;;
9821;SDS011;4950;46.042;14.472;2023-04-06T05:01:23;19.70;;;7.03;;
9821;SDS011;4950;46.042;14.472;2023-04-06T05:03:50;18.10;;;7.63;;
9821;SDS011;4950;46.042;14.472;2023-04-06T05:06:18;19.33;;;6.87;;
9821;SDS011;4950;46.042;14.472;2023-04-06T05:08:45;15.23;;;6.97;;
9821;SDS011;4950;46.042;14.472;2023-04-06T05:11:12;17.23;;;7.37;;
9821;SDS011;4950;46.042;14.472;2023-04-06T05:13:38;20.60;;;7.97;;
9821;SDS011;4950;46.042;14.472;2023-04-06T05:16:05;25.03;;;9.20;;
9821;SDS011;4950;46.042;14.472;2023-04-06T05:18:32;15.63;;;7.73;;
9821;SDS011;4950;46.042;14.472;2023-04-06T05:20:59;18.53;;;8.60;;
9821;SDS011;4950;46.042;14.472;2023-04-06T05:23:27;16.27;;;7.53;;
9821;SDS011;4950;46.042;14.472;2023-04-06T05:25:54;22.23;;;8.50;;
9821;SDS011;4950;46.042;14.472;2023-04-06T05:28:20;30.33;;;11.97;;
9821;SDS011;4950;46.042;14.472;2023-04-06T05:30:48;26.10;;;12.10;;
9821;SDS011;4950;46.042;14.472;2023-04-06T05:33:14;18.07;;;8.77;;
9821;SDS011;4950;46.042;14.472;2023-04-06T05:35:41;18.53;;;9.07;;
9821;SDS011;4950;46.042;14.472;2023-04-06T05:38:08;20.03;;;9.00;;
9821;SDS011;4950;46.042;14.472;2023-04-06T05:40:37;23.83;;;8.83;;
9821;SDS011;4950;46.042;14.472;2023-04-06T05:43:06;19.23;;;9.83;;
9821;SDS011;4950;46.042;14.472;2023-04-06T05:45:33;20.73;;;10.93;;
9821;SDS011;4950;46.042;14.472;2023-04-06T05:48:00;18.70;;;9.03;;
9821;SDS011;4950;46.042;14.472;2023-04-06T05:50:27;20.00;;;9.97;;
9821;SDS011;4950;46.042;14.472;2023-04-06T05:52:54;17.40;;;10.50;;
9821;SDS011;4950;46.042;14.472;2023-04-06T05:55:21;24.03;;;10.57;;
9821;SDS011;4950;46.042;14.472;2023-04-06T05:57:49;21.10;;;9.93;;
9821;SDS011;4950;46.042;14.472;2023-04-06T06:00:16;21.90;;;9.40;;
9821;SDS011;4950;46.042;14.472;2023-04-06T06:02:43;22.37;;;9.07;;
9821;SDS011;4950;46.042;14.472;2023-04-06T06:05:09;24.10;;;10.70;;
9821;SDS011;4950;46.042;14.472;2023-04-06T06:07:36;19.80;;;9.73;;
9821;SDS011;4950;46.042;14.472;2023-04-06T06:10:03;20.10;;;10.53;;
9821;SDS011;4950;46.042;14.472;2023-04-06T06:12:30;20.57;;;9.93;;
9821;SDS011;4950;46.042;14.472;2023-04-06T06:14:58;19.07;;;10.03;;
9821;SDS011;4950;46.042;14.472;2023-04-06T06:17:25;23.53;;;11.07;;
9821;SDS011;4950;46.042;14.472;2023-04-06T06:19:52;23.37;;;10.10;;
9821;SDS011;4950;46.042;14.472;2023-04-06T06:22:19;20.70;;;9.83;;
9821;SDS011;4950;46.042;14.472;2023-04-06T06:24:46;30.47;;;10.57;;
9821;SDS011;4950;46.042;14.472;2023-04-06T06:27:12;23.43;;;10.73;;
9821;SDS011;4950;46.042;14.472;2023-04-06T06:29:39;33.67;;;11.17;;
9821;SDS011;4950;46.042;14.472;2023-04-06T06:32:07;22.40;;;10.80;;
9821;SDS011;4950;46.042;14.472;2023-04-06T06:34:35;31.33;;;11.80;;
9821;SDS011;4950;46.042;14.472;2023-04-06T06:37:02;32.97;;;11.27;;
9821;SDS011;4950;46.042;14.472;2023-04-06T06:39:29;32.40;;;11.13;;
9821;SDS011;4950;46.042;14.472;2023-04-06T06:41:55;34.30;;;11.83;;
9821;SDS011;4950;46.042;14.472;2023-04-06T06:44:22;22.20;;;11.07;;
9821;SDS011;4950;46.042;14.472;2023-04-06T06:46:49;29.60;;;11.43;;
9821;SDS011;4950;46.042;14.472;2023-04-06T06:49:17;28.23;;;12.00;;
9821;SDS011;4950;46.042;14.472;2023-04-06T06:51:44;23.40;;;11.53;;
9821;SDS011;4950;46.042;14.472;2023-04-06T06:54:11;30.17;;;10.83;;
9821;SDS011;4950;46.042;14.472;2023-04-06T06:56:38;30.40;;;11.67;;
9821;SDS011;4950;46.042;14.472;2023-04-06T06:59:05;26.97;;;12.13;;
9821;SDS011;4950;46.042;14.472;2023-04-06T07:01:32;28.27;;;12.23;;
9821;SDS011;4950;46.042;14.472;2023-04-06T07:03:59;32.43;;;12.73;;
9821;SDS011;4950;46.042;14.472;2023-04-06T07:06:27;29.20;;;11.70;;
9821;SDS011;4950;46.042;14.472;2023-04-06T07:08:54;24.73;;;12.63;;
9821;SDS011;4950;46.042;14.472;2023-04-06T07:11:21;31.63;;;12.87;;
9821;SDS011;4950;46.042;14.472;2023-04-06T07:13:47;32.40;;;11.97;;
9821;SDS011;4950;46.042;14.472;2023-04-06T07:16:14;34.83;;;12.40;;
9821;SDS011;4950;46.042;14.472;2023-04-06T07:18:41;28.17;;;11.33;;
9821;SDS011;4950;46.042;14.472;2023-04-06T07:21:08;24.70;;;12.50;;
9821;SDS011;4950;46.042;14.472;2023-04-06T07:23:36;26.70;;;12.63;;
9821;SDS011;4950;46.042;14.472;2023-04-06T07:26:03;24.63;;;11.33;;
9821;SDS011;4950;46.042;14.472;2023-04-06T07:28:30;21.73;;;11.30;;
9821;SDS011;4950;46.042;14.472;2023-04-06T07:30:57;22.60;;;11.83;;
9821;SDS011;4950;46.042;14.472;2023-04-06T07:33:24;22.43;;;10.67;;
9821;SDS011;4950;46.042;14.472;2023-04-06T07:35:54;21.97;;;11.43;;
9821;SDS011;4950;46.042;14.472;2023-04-06T07:38:21;21.77;;;10.57;;
9821;SDS011;4950;46.042;14.472;2023-04-06T07:40:49;20.20;;;10.23;;
9821;SDS011;4950;46.042;14.472;2023-04-06T07:43:16;19.43;;;9.27;;
9821;SDS011;4950;46.042;14.472;2023-04-06T07:45:43;24.60;;;11.43;;
9821;SDS011;4950;46.042;14.472;2023-04-06T07:48:10;22.27;;;10.27;;
9821;SDS011;4950;46.042;14.472;2023-04-06T07:50:37;20.03;;;10.07;;
9821;SDS011;4950;46.042;14.472;2023-04-06T07:53:04;17.90;;;8.53;;
9821;SDS011;4950;46.042;14.472;2023-04-06T07:55:31;16.70;;;9.73;;
9821;SDS011;4950;46.042;14.472;2023-04-06T07:57:59;19.23;;;9.40;;
9821;SDS011;4950;46.042;14.472;2023-04-06T08:00:26;17.07;;;8.30;;
9821;SDS011;4950;46.042;14.472;2023-04-06T08:02:53;21.70;;;9.57;;
9821;SDS011;4950;46.042;14.472;2023-04-06T08:05:20;17.58;;;9.45;;
9821;SDS011;4950;46.042;14.472;2023-04-06T08:07:46;12.47;;;6.87;;
9821;SDS011;4950;46.042;14.472;2023-04-06T08:10:13;12.30;;;6.35;;
9821;SDS011;4950;46.042;14.472;2023-04-06T08:12:40;14.48;;;6.03;;
9821;SDS011;4950;46.042;14.472;2023-04-06T08:15:08;11.48;;;5.10;;
9821;SDS011;4950;46.042;14.472;2023-04-06T08:17:36;10.75;;;5.63;;
9821;SDS011;4950;46.042;14.472;2023-04-06T08:20:02;14.13;;;5.47;;
9821;SDS011;4950;46.042;14.472;2023-04-06T08:22:29;12.82;;;5.45;;
9821;SDS011;4950;46.042;14.472;2023-04-06T08:24:56;12.30;;;5.53;;
9821;SDS011;4950;46.042;14.472;2023-04-06T08:27:23;9.75;;;5.93;;
9821;SDS011;4950;46.042;14.472;2023-04-06T08:29:50;11.18;;;5.20;;
9821;SDS011;4950;46.042;14.472;2023-04-06T08:32:18;9.27;;;4.35;;
9821;SDS011;4950;46.042;14.472;2023-04-06T08:34:45;8.68;;;4.63;;
9821;SDS011;4950;46.042;14.472;2023-04-06T08:37:12;15.13;;;5.28;;
9821;SDS011;4950;46.042;14.472;2023-04-06T08:39:39;17.10;;;4.93;;
9821;SDS011;4950;46.042;14.472;2023-04-06T08:42:10;11.43;;;4.95;;
9821;SDS011;4950;46.042;14.472;2023-04-06T08:44:42;14.10;;;4.60;;
9821;SDS011;4950;46.042;14.472;2023-04-06T08:47:10;12.18;;;4.93;;
9821;SDS011;4950;46.042;14.472;2023-04-06T08:49:39;11.20;;;5.22;;
9821;SDS011;4950;46.042;14.472;2023-04-06T08:52:06;10.25;;;4.82;;
9821;SDS011;4950;46.042;14.472;2023-04-06T08:54:33;10.30;;;4.38;;
9821;SDS011;4950;46.042;14.472;2023-04-06T08:57:00;8.25;;;4.80;;
9821;SDS011;4950;46.042;14.472;2023-04-06T08:59:28;9.60;;;5.22;;
9821;SDS011;4950;46.042;14.472;2023-04-06T09:01:56;11.82;;;5.40;;
9821;SDS011;4950;46.042;14.472;2023-04-06T09:04:23;10.00;;;4.60;;
9821;SDS011;4950;46.042;14.472;2023-04-06T09:06:52;12.85;;;5.45;;
9821;SDS011;4950;46.042;14.472;2023-04-06T09:09:19;9.77;;;5.50;;
9821;SDS011;4950;46.042;14.472;2023-04-06T09:11:46;11.73;;;5.35;;
9821;SDS011;4950;46.042;14.472;2023-04-06T09:14:14;13.88;;;5.50;;
9821;SDS011;4950;46.042;14.472;2023-04-06T09:16:43;10.00;;;5.05;;
9821;SDS011;4950;46.042;14.472;2023-04-06T09:19:10;12.93;;;5.70;;
9821;SDS011;4950;46.042;14.472;2023-04-06T09:21:38;11.13;;;5.18;;
9821;SDS011;4950;46.042;14.472;2023-04-06T09:24:07;11.05;;;5.55;;
9821;SDS011;4950;46.042;14.472;2023-04-06T09:26:43;8.38;;;5.18;;
9821;SDS011;4950;46.042;14.472;2023-04-06T09:29:21;9.45;;;5.38;;
9821;SDS011;4950;46.042;14.472;2023-04-06T09:31:49;11.98;;;5.03;;
9821;SDS011;4950;46.042;14.472;2023-04-06T09:34:25;11.00;;;5.57;;
9821;SDS011;4950;46.042;14.472;2023-04-06T09:36:52;10.55;;;6.00;;
9821;SDS011;4950;46.042;14.472;2023-04-06T09:39:21;13.15;;;5.68;;
9821;SDS011;4950;46.042;14.472;2023-04-06T09:41:50;9.48;;;5.15;;
9821;SDS011;4950;46.042;14.472;2023-04-06T09:44:17;10.40;;;5.80;;
9821;SDS011;4950;46.042;14.472;2023-04-06T09:46:45;8.68;;;5.55;;
9821;SDS011;4950;46.042;14.472;2023-04-06T09:49:13;12.15;;;5.38;;
9821;SDS011;4950;46.042;14.472;2023-04-06T09:51:41;11.00;;;6.00;;
9821;SDS011;4950;46.042;14.472;2023-04-06T09:54:11;11.38;;;5.63;;
9821;SDS011;4950;46.042;14.472;2023-04-06T09:56:45;11.27;;;6.13;;
9821;SDS011;4950;46.042;14.472;2023-04-06T09:59:14;11.73;;;6.13;;
9821;SDS011;4950;46.042;14.472;2023-04-06T10:01:48;9.93;;;5.38;;
9821;SDS011;4950;46.042;14.472;2023-04-06T10:04:21;12.50;;;5.65;;
9821;SDS011;4950;46.042;14.472;2023-04-06T10:06:57;13.50;;;5.28;;
9821;SDS011;4950;46.042;14.472;2023-04-06T10:09:28;9.82;;;5.75;;
9821;SDS011;4950;46.042;14.472;2023-04-06T10:12:02;12.30;;;5.45;;
9821;SDS011;4950;46.042;14.472;2023-04-06T10:16:57;11.93;;;5.68;;
9821;SDS011;4950;46.042;14.472;2023-04-06T10:19:25;9.90;;;5.75;;
9821;SDS011;4950;46.042;14.472;2023-04-06T10:21:55;10.85;;;5.90;;
9821;SDS011;4950;46.042;14.472;2023-04-06T10:24:24;12.57;;;6.32;;
9821;SDS011;4950;46.042;14.472;2023-04-06T10:26:57;10.00;;;5.80;;
9821;SDS011;4950;46.042;14.472;2023-04-06T10:29:26;11.27;;;5.97;;
9821;SDS011;4950;46.042;14.472;2023-04-06T10:31:53;10.00;;;5.53;;
9821;SDS011;4950;46.042;14.472;2023-04-06T10:34:21;11.73;;;5.00;;
9821;SDS011;4950;46.042;14.472;2023-04-06T10:36:47;14.20;;;6.75;;
9821;SDS011;4950;46.042;14.472;2023-04-06T10:39:14;9.68;;;5.65;;
9821;SDS011;4950;46.042;14.472;2023-04-06T10:41:51;11.25;;;6.40;;
9821;SDS011;4950;46.042;14.472;2023-04-06T10:44:19;9.93;;;5.65;;
9821;SDS011;4950;46.042;14.472;2023-04-06T10:46:53;11.35;;;5.85;;
9821;SDS011;4950;46.042;14.472;2023-04-06T10:49:22;15.25;;;6.05;;
9821;SDS011;4950;46.042;14.472;2023-04-06T10:51:51;11.75;;;5.65;;
9821;SDS011;4950;46.042;14.472;2023-04-06T10:54:20;10.93;;;5.55;;
9821;SDS011;4950;46.042;14.472;2023-04-06T10:56:48;12.55;;;6.07;;
9821;SDS011;4950;46.042;14.472;2023-04-06T10:59:18;8.77;;;5.22;;
9821;SDS011;4950;46.042;14.472;2023-04-06T11:01:46;12.15;;;6.13;;
9821;SDS011;4950;46.042;14.472;2023-04-06T11:04:16;11.18;;;5.63;;
9821;SDS011;4950;46.042;14.472;2023-04-06T11:06:46;10.10;;;5.40;;
9821;SDS011;4950;46.042;14.472;2023-04-06T11:09:22;9.77;;;5.10;;
9821;SDS011;4950;46.042;14.472;2023-04-06T11:11:51;12.98;;;6.30;;
9821;SDS011;4950;46.042;14.472;2023-04-06T11:14:18;8.30;;;5.13;;
9821;SDS011;4950;46.042;14.472;2023-04-06T11:16:46;12.40;;;5.43;;
9821;SDS011;4950;46.042;14.472;2023-04-06T11:19:15;8.35;;;5.50;;
9821;SDS011;4950;46.042;14.472;2023-04-06T11:21:43;9.60;;;4.87;;
9821;SDS011;4950;46.042;14.472;2023-04-06T11:24:12;10.35;;;4.97;;
9821;SDS011;4950;46.042;14.472;2023-04-06T11:26:41;8.95;;;5.13;;
9821;SDS011;4950;46.042;14.472;2023-04-06T11:29:10;9.13;;;5.45;;
9821;SDS011;4950;46.042;14.472;2023-04-06T11:31:38;10.52;;;5.93;;
9821;SDS011;4950;46.042;14.472;2023-04-06T11:34:09;11.10;;;5.78;;
9821;SDS011;4950;46.042;14.472;2023-04-06T11:36:40;13.05;;;5.35;;
9821;SDS011;4950;46.042;14.472;2023-04-06T11:39:08;11.82;;;5.50;;
9821;SDS011;4950;46.042;14.472;2023-04-06T11:41:35;10.23;;;5.65;;
9821;SDS011;4950;46.042;14.472;2023-04-06T11:44:02;9.48;;;5.15;;
9821;SDS011;4950;46.042;14.472;2023-04-06T11:46:29;9.05;;;5.70;;
9821;SDS011;4950;46.042;14.472;2023-04-06T11:48:57;11.38;;;5.07;;
9821;SDS011;4950;46.042;14.472;2023-04-06T11:51:25;10.07;;;5.68;;
9821;SDS011;4950;46.042;14.472;2023-04-06T11:53:54;9.45;;;5.30;;
9821;SDS011;4950;46.042;14.472;2023-04-06T11:56:24;11.32;;;5.03;;
9821;SDS011;4950;46.042;14.472;2023-04-06T11:58:52;10.43;;;5.05;;
9821;SDS011;4950;46.042;14.472;2023-04-06T12:01:20;11.60;;;6.03;;
9821;SDS011;4950;46.042;14.472;2023-04-06T12:03:47;9.27;;;4.65;;
9821;SDS011;4950;46.042;14.472;2023-04-06T12:06:14;8.52;;;4.70;;
9821;SDS011;4950;46.042;14.472;2023-04-06T12:08:41;7.95;;;4.72;;
9821;SDS011;4950;46.042;14.472;2023-04-06T12:11:09;8.73;;;4.70;;
9821;SDS011;4950;46.042;14.472;2023-04-06T12:13:36;8.05;;;4.43;;
9821;SDS011;4950;46.042;14.472;2023-04-06T12:16:03;8.65;;;3.83;;
9821;SDS011;4950;46.042;14.472;2023-04-06T12:18:30;9.00;;;4.03;;
9821;SDS011;4950;46.042;14.472;2023-04-06T12:20:58;9.07;;;4.10;;
9821;SDS011;4950;46.042;14.472;2023-04-06T12:23:25;9.55;;;4.93;;
9821;SDS011;4950;46.042;14.472;2023-04-06T12:25:51;14.73;;;4.95;;
9821;SDS011;4950;46.042;14.472;2023-04-06T12:28:21;9.20;;;4.70;;
9821;SDS011;4950;46.042;14.472;2023-04-06T12:30:52;8.45;;;4.78;;
9821;SDS011;4950;46.042;14.472;2023-04-06T12:33:19;7.50;;;3.63;;
9821;SDS011;4950;46.042;14.472;2023-04-06T12:35:46;8.85;;;4.25;;
9821;SDS011;4950;46.042;14.472;2023-04-06T12:38:12;11.93;;;4.75;;
9821;SDS011;4950;46.042;14.472;2023-04-06T12:40:39;8.77;;;4.80;;
9821;SDS011;4950;46.042;14.472;2023-04-06T12:43:06;7.32;;;4.20;;
9821;SDS011;4950;46.042;14.472;2023-04-06T12:45:35;7.75;;;4.70;;
9821;SDS011;4950;46.042;14.472;2023-04-06T12:48:02;7.25;;;4.13;;
9821;SDS011;4950;46.042;14.472;2023-04-06T12:50:28;7.90;;;4.50;;
9821;SDS011;4950;46.042;14.472;2023-04-06T12:52:55;8.20;;;4.78;;
9821;SDS011;4950;46.042;14.472;2023-04-06T12:55:22;9.55;;;4.55;;
9821;SDS011;4950;46.042;14.472;2023-04-06T12:57:48;9.15;;;4.68;;
9821;SDS011;4950;46.042;14.472;2023-04-06T13:00:16;9.02;;;4.10;;
9821;SDS011;4950;46.042;14.472;2023-04-06T13:02:44;10.57;;;3.95;;
9821;SDS011;4950;46.042;14.472;2023-04-06T13:05:12;7.55;;;4.15;;
9821;SDS011;4950;46.042;14.472;2023-04-06T13:07:43;8.23;;;4.22;;
9821;SDS011;4950;46.042;14.472;2023-04-06T13:10:10;10.52;;;4.32;;
9821;SDS011;4950;46.042;14.472;2023-04-06T13:12:37;12.88;;;5.20;;
9821;SDS011;4950;46.042;14.472;2023-04-06T13:15:04;8.07;;;5.22;;
9821;SDS011;4950;46.042;14.472;2023-04-06T13:17:32;9.75;;;5.05;;
9821;SDS011;4950;46.042;14.472;2023-04-06T13:20:00;9.38;;;4.30;;
9821;SDS011;4950;46.042;14.472;2023-04-06T13:22:27;7.40;;;4.28;;
9821;SDS011;4950;46.042;14.472;2023-04-06T13:24:54;10.88;;;4.65;;
9821;SDS011;4950;46.042;14.472;2023-04-06T13:27:21;10.85;;;3.95;;
9821;SDS011;4950;46.042;14.472;2023-04-06T13:29:48;9.75;;;4.53;;
9821;SDS011;4950;46.042;14.472;2023-04-06T13:32:15;8.05;;;4.40;;
9821;SDS011;4950;46.042;14.472;2023-04-06T13:34:41;7.22;;;3.92;;
9821;SDS011;4950;46.042;14.472;2023-04-06T13:37:11;7.65;;;4.10;;
9821;SDS011;4950;46.042;14.472;2023-04-06T13:39:38;8.50;;;3.85;;
9821;SDS011;4950;46.042;14.472;2023-04-06T13:42:05;8.63;;;4.30;;
9821;SDS011;4950;46.042;14.472;2023-04-06T13:44:32;8.95;;;4.07;;
9821;SDS011;4950;46.042;14.472;2023-04-06T13:46:59;8.98;;;4.18;;
9821;SDS011;4950;46.042;14.472;2023-04-06T13:49:26;7.80;;;4.28;;
9821;SDS011;4950;46.042;14.472;2023-04-06T13:51:52;8.90;;;3.83;;
9821;SDS011;4950;46.042;14.472;2023-04-06T13:54:21;7.70;;;4.03;;
9821;SDS011;4950;46.042;14.472;2023-04-06T13:56:47;6.70;;;4.03;;
9821;SDS011;4950;46.042;14.472;2023-04-06T13:59:14;11.48;;;3.95;;
9821;SDS011;4950;46.042;14.472;2023-04-06T14:01:41;6.78;;;3.35;;
9821;SDS011;4950;46.042;14.472;2023-04-06T14:04:08;6.95;;;4.05;;
9821;SDS011;4950;46.042;14.472;2023-04-06T14:06:34;8.05;;;3.80;;
9821;SDS011;4950;46.042;14.472;2023-04-06T14:09:01;8.45;;;3.75;;
9821;SDS011;4950;46.042;14.472;2023-04-06T14:11:30;5.75;;;3.47;;
9821;SDS011;4950;46.042;14.472;2023-04-06T14:13:57;7.18;;;3.65;;
9821;SDS011;4950;46.042;14.472;2023-04-06T14:16:25;8.02;;;3.88;;
9821;SDS011;4950;46.042;14.472;2023-04-06T14:18:52;7.22;;;3.65;;
9821;SDS011;4950;46.042;14.472;2023-04-06T14:21:19;5.78;;;3.30;;
9821;SDS011;4950;46.042;14.472;2023-04-06T14:23:46;13.98;;;3.15;;
9821;SDS011;4950;46.042;14.472;2023-04-06T14:26:12;8.75;;;4.00;;
9821;SDS011;4950;46.042;14.472;2023-04-06T14:28:41;7.82;;;3.22;;
9821;SDS011;4950;46.042;14.472;2023-04-06T14:31:11;6.43;;;3.67;;
9821;SDS011;4950;46.042;14.472;2023-04-06T14:33:40;5.70;;;3.13;;
9821;SDS011;4950;46.042;14.472;2023-04-06T14:36:08;7.00;;;3.70;;
9821;SDS011;4950;46.042;14.472;2023-04-06T14:38:35;6.82;;;3.40;;
9821;SDS011;4950;46.042;14.472;2023-04-06T14:41:03;10.32;;;3.47;;
9821;SDS011;4950;46.042;14.472;2023-04-06T14:43:30;12.25;;;4.70;;
9821;SDS011;4950;46.042;14.472;2023-04-06T14:46:00;13.95;;;4.63;;
9821;SDS011;4950;46.042;14.472;2023-04-06T14:48:27;8.82;;;3.47;;
9821;SDS011;4950;46.042;14.472;2023-04-06T14:50:54;7.45;;;3.35;;
9821;SDS011;4950;46.042;14.472;2023-04-06T14:53:22;5.68;;;3.28;;